sensor_id;sensor_type;location;lat;lon;timestamp;temperature;humidity
25582;DHT22;13462;50.764;4.332;2023-11-19T00:02:16;13.70;99.90
25582;DHT22;13462;50.764;4.332;2023-11-19T00:04:42;13.70;99.90
25582;DHT22;13462;50.764;4.332;2023-11-19T00:07:07;13.70;99.90
25582;DHT22;13462;50.764;4.332;2023-11-19T00:09:35;13.70;99.90
25582;DHT22;13462;50.764;4.332;2023-11-19T00:12:03;13.70;99.90
25582;DHT22;13462;50.764;4.332;2023-11-19T00:14:30;13.70;99.90
25582;DHT22;13462;50.764;4.332;2023-11-19T00:16:55;13.70;99.90
25582;DHT22;13462;50.764;4.332;2023-11-19T00:19:21;13.70;99.90
25582;DHT22;13462;50.764;4.332;2023-11-19T00:21:47;13.70;99.90
25582;DHT22;13462;50.764;4.332;2023-11-19T00:24:13;13.70;99.90
25582;DHT22;13462;50.764;4.332;2023-11-19T00:26:41;13.70;99.90
25582;DHT22;13462;50.764;4.332;2023-11-19T00:29:07;13.70;99.90
25582;DHT22;13462;50.764;4.332;2023-11-19T00:31:33;13.70;99.90
25582;DHT22;13462;50.764;4.332;2023-11-19T00:33:58;13.70;99.90
25582;DHT22;13462;50.764;4.332;2023-11-19T00:36:24;13.70;99.90
25582;DHT22;13462;50.764;4.332;2023-11-19T00:38:51;13.70;99.90
25582;DHT22;13462;50.764;4.332;2023-11-19T00:41:18;13.70;99.90
25582;DHT22;13462;50.764;4.332;2023-11-19T00:43:44;13.70;99.90
25582;DHT22;13462;50.764;4.332;2023-11-19T00:46:09;13.70;99.90
25582;DHT22;13462;50.764;4.332;2023-11-19T00:48:36;13.80;99.90
25582;DHT22;13462;50.764;4.332;2023-11-19T00:51:02;13.70;99.90
25582;DHT22;13462;50.764;4.332;2023-11-19T00:53:29;13.70;99.90
25582;DHT22;13462;50.764;4.332;2023-11-19T00:55:55;13.70;99.90
25582;DHT22;13462;50.764;4.332;2023-11-19T00:58:20;13.70;99.90
25582;DHT22;13462;50.764;4.332;2023-11-19T01:00:46;13.70;99.90
25582;DHT22;13462;50.764;4.332;2023-11-19T01:03:12;13.70;99.90
25582;DHT22;13462;50.764;4.332;2023-11-19T01:05:37;13.70;99.90
25582;DHT22;13462;50.764;4.332;2023-11-19T01:08:03;13.70;99.90
25582;DHT22;13462;50.764;4.332;2023-11-19T01:10:30;13.70;99.90
25582;DHT22;13462;50.764;4.332;2023-11-19T01:12:56;13.70;99.90
25582;DHT22;13462;50.764;4.332;2023-11-19T01:15:22;13.70;99.90
25582;DHT22;13462;50.764;4.332;2023-11-19T01:17:48;13.70;99.90
25582;DHT22;13462;50.764;4.332;2023-11-19T01:20:15;13.70;99.90
25582;DHT22;13462;50.764;4.332;2023-11-19T01:22:41;13.80;99.90
25582;DHT22;13462;50.764;4.332;2023-11-19T01:25:07;13.70;99.90
25582;DHT22;13462;50.764;4.332;2023-11-19T01:27:33;13.70;99.90
25582;DHT22;13462;50.764;4.332;2023-11-19T01:30:02;13.60;99.90
25582;DHT22;13462;50.764;4.332;2023-11-19T01:32:34;13.60;99.90
25582;DHT22;13462;50.764;4.332;2023-11-19T01:35:02;13.60;99.90
25582;DHT22;13462;50.764;4.332;2023-11-19T01:37:29;13.50;99.90
25582;DHT22;13462;50.764;4.332;2023-11-19T01:39:55;13.50;99.90
25582;DHT22;13462;50.764;4.332;2023-11-19T01:42:20;13.50;99.90
25582;DHT22;13462;50.764;4.332;2023-11-19T01:44:58;13.50;99.90
25582;DHT22;13462;50.764;4.332;2023-11-19T01:47:25;13.50;99.90
25582;DHT22;13462;50.764;4.332;2023-11-19T01:49:51;13.50;99.90
25582;DHT22;13462;50.764;4.332;2023-11-19T01:52:18;13.50;99.90
25582;DHT22;13462;50.764;4.332;2023-11-19T01:54:44;13.50;99.90
25582;DHT22;13462;50.764;4.332;2023-11-19T01:57:10;13.50;99.90
25582;DHT22;13462;50.764;4.332;2023-11-19T01:59:37;13.50;99.90
25582;DHT22;13462;50.764;4.332;2023-11-19T02:02:04;13.50;99.90
25582;DHT22;13462;50.764;4.332;2023-11-19T02:04:31;13.50;99.90
25582;DHT22;13462;50.764;4.332;2023-11-19T02:06:58;13.50;99.90
25582;DHT22;13462;50.764;4.332;2023-11-19T02:09:24;13.50;99.90
25582;DHT22;13462;50.764;4.332;2023-11-19T02:11:49;13.50;99.90
25582;DHT22;13462;50.764;4.332;2023-11-19T02:14:17;13.50;99.90
25582;DHT22;13462;50.764;4.332;2023-11-19T02:16:43;13.40;99.90
25582;DHT22;13462;50.764;4.332;2023-11-19T02:19:09;13.40;99.90
25582;DHT22;13462;50.764;4.332;2023-11-19T02:21:36;13.40;99.90
25582;DHT22;13462;50.764;4.332;2023-11-19T02:24:06;13.40;99.90
25582;DHT22;13462;50.764;4.332;2023-11-19T02:26:53;13.50;99.90
25582;DHT22;13462;50.764;4.332;2023-11-19T02:29:23;13.40;99.90
25582;DHT22;13462;50.764;4.332;2023-11-19T02:31:49;13.40;99.90
25582;DHT22;13462;50.764;4.332;2023-11-19T02:34:15;13.40;99.90
25582;DHT22;13462;50.764;4.332;2023-11-19T02:36:41;13.30;99.90
25582;DHT22;13462;50.764;4.332;2023-11-19T02:39:07;13.30;99.90
25582;DHT22;13462;50.764;4.332;2023-11-19T02:41:36;13.40;99.90
25582;DHT22;13462;50.764;4.332;2023-11-19T02:44:02;13.40;99.90
25582;DHT22;13462;50.764;4.332;2023-11-19T02:46:28;13.40;99.90
25582;DHT22;13462;50.764;4.332;2023-11-19T02:48:54;13.30;99.90
25582;DHT22;13462;50.764;4.332;2023-11-19T02:51:19;13.30;99.90
25582;DHT22;13462;50.764;4.332;2023-11-19T02:53:45;13.30;99.90
25582;DHT22;13462;50.764;4.332;2023-11-19T02:56:13;13.40;99.90
25582;DHT22;13462;50.764;4.332;2023-11-19T02:58:50;13.40;99.90
25582;DHT22;13462;50.764;4.332;2023-11-19T03:01:25;13.40;99.90
25582;DHT22;13462;50.764;4.332;2023-11-19T03:03:59;13.30;99.90
25582;DHT22;13462;50.764;4.332;2023-11-19T03:06:27;13.20;99.90
25582;DHT22;13462;50.764;4.332;2023-11-19T03:08:54;13.20;99.90
25582;DHT22;13462;50.764;4.332;2023-11-19T03:11:19;13.20;99.90
25582;DHT22;13462;50.764;4.332;2023-11-19T03:13:45;13.10;99.90
25582;DHT22;13462;50.764;4.332;2023-11-19T03:16:12;13.00;99.90
25582;DHT22;13462;50.764;4.332;2023-11-19T03:18:38;13.00;99.90
25582;DHT22;13462;50.764;4.332;2023-11-19T03:21:06;13.00;99.90
25582;DHT22;13462;50.764;4.332;2023-11-19T03:23:32;12.90;99.90
25582;DHT22;13462;50.764;4.332;2023-11-19T03:25:57;12.80;99.90
25582;DHT22;13462;50.764;4.332;2023-11-19T03:28:23;12.70;99.90
25582;DHT22;13462;50.764;4.332;2023-11-19T03:30:48;12.70;99.90
25582;DHT22;13462;50.764;4.332;2023-11-19T03:33:14;12.70;99.90
25582;DHT22;13462;50.764;4.332;2023-11-19T03:35:39;12.70;99.90
25582;DHT22;13462;50.764;4.332;2023-11-19T03:38:06;12.70;99.90
25582;DHT22;13462;50.764;4.332;2023-11-19T03:40:32;12.60;99.90
25582;DHT22;13462;50.764;4.332;2023-11-19T03:42:57;12.60;99.90
25582;DHT22;13462;50.764;4.332;2023-11-19T03:45:24;12.60;99.90
25582;DHT22;13462;50.764;4.332;2023-11-19T03:47:50;12.50;99.90
25582;DHT22;13462;50.764;4.332;2023-11-19T03:50:16;12.50;99.90
25582;DHT22;13462;50.764;4.332;2023-11-19T03:52:41;12.50;99.90
25582;DHT22;13462;50.764;4.332;2023-11-19T03:55:07;12.50;99.90
25582;DHT22;13462;50.764;4.332;2023-11-19T03:57:34;12.50;99.90
25582;DHT22;13462;50.764;4.332;2023-11-19T04:00:00;12.60;99.90
25582;DHT22;13462;50.764;4.332;2023-11-19T04:02:28;12.70;99.90
25582;DHT22;13462;50.764;4.332;2023-11-19T04:04:54;12.70;99.90
25582;DHT22;13462;50.764;4.332;2023-11-19T04:07:21;12.70;99.90
25582;DHT22;13462;50.764;4.332;2023-11-19T04:09:46;12.70;99.90
25582;DHT22;13462;50.764;4.332;2023-11-19T04:12:12;12.70;99.90
25582;DHT22;13462;50.764;4.332;2023-11-19T04:14:37;12.70;99.90
25582;DHT22;13462;50.764;4.332;2023-11-19T04:17:03;12.70;99.90
25582;DHT22;13462;50.764;4.332;2023-11-19T04:19:29;12.70;99.90
25582;DHT22;13462;50.764;4.332;2023-11-19T04:21:54;12.70;99.90
25582;DHT22;13462;50.764;4.332;2023-11-19T04:24:20;12.60;99.90
25582;DHT22;13462;50.764;4.332;2023-11-19T04:26:46;12.60;99.90
25582;DHT22;13462;50.764;4.332;2023-11-19T04:29:16;12.60;99.90
25582;DHT22;13462;50.764;4.332;2023-11-19T04:31:45;12.50;99.90
25582;DHT22;13462;50.764;4.332;2023-11-19T04:34:11;12.50;99.90
25582;DHT22;13462;50.764;4.332;2023-11-19T04:36:37;12.60;99.90
25582;DHT22;13462;50.764;4.332;2023-11-19T04:39:03;12.60;99.90
25582;DHT22;13462;50.764;4.332;2023-11-19T04:41:46;12.70;99.90
25582;DHT22;13462;50.764;4.332;2023-11-19T04:44:12;12.70;99.90
25582;DHT22;13462;50.764;4.332;2023-11-19T04:46:37;12.80;99.90
25582;DHT22;13462;50.764;4.332;2023-11-19T04:49:03;12.80;99.90
25582;DHT22;13462;50.764;4.332;2023-11-19T04:51:30;12.80;99.90
25582;DHT22;13462;50.764;4.332;2023-11-19T04:53:55;12.70;99.90
25582;DHT22;13462;50.764;4.332;2023-11-19T04:56:21;12.70;99.90
25582;DHT22;13462;50.764;4.332;2023-11-19T04:58:48;12.70;99.90
25582;DHT22;13462;50.764;4.332;2023-11-19T05:01:14;12.60;99.90
25582;DHT22;13462;50.764;4.332;2023-11-19T05:03:43;12.60;99.90
25582;DHT22;13462;50.764;4.332;2023-11-19T05:06:09;12.50;99.90
25582;DHT22;13462;50.764;4.332;2023-11-19T05:08:35;12.50;99.90
25582;DHT22;13462;50.764;4.332;2023-11-19T05:11:01;12.40;99.90
25582;DHT22;13462;50.764;4.332;2023-11-19T05:13:26;12.40;99.90
25582;DHT22;13462;50.764;4.332;2023-11-19T05:15:52;12.30;99.90
25582;DHT22;13462;50.764;4.332;2023-11-19T05:18:17;12.20;99.90
25582;DHT22;13462;50.764;4.332;2023-11-19T05:20:44;12.20;99.90
25582;DHT22;13462;50.764;4.332;2023-11-19T05:23:10;12.30;99.90
25582;DHT22;13462;50.764;4.332;2023-11-19T05:25:36;12.30;99.90
25582;DHT22;13462;50.764;4.332;2023-11-19T05:28:02;12.30;99.90
25582;DHT22;13462;50.764;4.332;2023-11-19T05:30:27;12.30;99.90
25582;DHT22;13462;50.764;4.332;2023-11-19T05:32:53;12.30;99.90
25582;DHT22;13462;50.764;4.332;2023-11-19T05:35:19;12.30;99.90
25582;DHT22;13462;50.764;4.332;2023-11-19T05:37:44;12.30;99.90
25582;DHT22;13462;50.764;4.332;2023-11-19T05:40:10;12.30;99.90
25582;DHT22;13462;50.764;4.332;2023-11-19T05:42:40;12.30;99.90
25582;DHT22;13462;50.764;4.332;2023-11-19T05:45:07;12.40;99.90
25582;DHT22;13462;50.764;4.332;2023-11-19T05:47:33;12.40;99.90
25582;DHT22;13462;50.764;4.332;2023-11-19T05:49:59;12.30;99.90
25582;DHT22;13462;50.764;4.332;2023-11-19T05:52:24;12.30;99.90
25582;DHT22;13462;50.764;4.332;2023-11-19T05:54:50;12.20;99.90
25582;DHT22;13462;50.764;4.332;2023-11-19T05:57:18;12.20;99.90
25582;DHT22;13462;50.764;4.332;2023-11-19T05:59:49;12.20;99.90
25582;DHT22;13462;50.764;4.332;2023-11-19T06:02:15;12.10;99.90
25582;DHT22;13462;50.764;4.332;2023-11-19T06:04:41;12.10;99.90
25582;DHT22;13462;50.764;4.332;2023-11-19T06:07:09;12.10;99.90
25582;DHT22;13462;50.764;4.332;2023-11-19T06:09:35;12.10;99.90
25582;DHT22;13462;50.764;4.332;2023-11-19T06:12:03;12.00;99.90
25582;DHT22;13462;50.764;4.332;2023-11-19T06:14:31;12.00;99.90
25582;DHT22;13462;50.764;4.332;2023-11-19T06:16:57;12.00;99.90
25582;DHT22;13462;50.764;4.332;2023-11-19T06:19:22;12.00;99.90
25582;DHT22;13462;50.764;4.332;2023-11-19T06:21:50;11.90;99.90
25582;DHT22;13462;50.764;4.332;2023-11-19T06:24:16;11.90;99.90
25582;DHT22;13462;50.764;4.332;2023-11-19T06:26:41;11.90;99.90
25582;DHT22;13462;50.764;4.332;2023-11-19T06:29:07;11.80;99.90
25582;DHT22;13462;50.764;4.332;2023-11-19T06:31:32;11.80;99.90
25582;DHT22;13462;50.764;4.332;2023-11-19T06:33:58;11.70;99.90
25582;DHT22;13462;50.764;4.332;2023-11-19T06:36:24;11.70;99.90
25582;DHT22;13462;50.764;4.332;2023-11-19T06:38:49;11.70;99.90
25582;DHT22;13462;50.764;4.332;2023-11-19T06:41:15;11.70;99.90
25582;DHT22;13462;50.764;4.332;2023-11-19T06:43:41;11.70;99.90
25582;DHT22;13462;50.764;4.332;2023-11-19T06:46:14;11.70;99.90
25582;DHT22;13462;50.764;4.332;2023-11-19T06:48:40;11.60;99.90
25582;DHT22;13462;50.764;4.332;2023-11-19T06:51:06;11.70;99.90
25582;DHT22;13462;50.764;4.332;2023-11-19T06:53:32;11.70;99.90
25582;DHT22;13462;50.764;4.332;2023-11-19T06:55:57;11.70;99.90
25582;DHT22;13462;50.764;4.332;2023-11-19T06:58:23;11.70;99.90
25582;DHT22;13462;50.764;4.332;2023-11-19T07:00:48;11.70;99.90
25582;DHT22;13462;50.764;4.332;2023-11-19T07:03:15;11.70;99.90
25582;DHT22;13462;50.764;4.332;2023-11-19T07:05:41;11.70;99.90
25582;DHT22;13462;50.764;4.332;2023-11-19T07:08:06;11.80;99.90
25582;DHT22;13462;50.764;4.332;2023-11-19T07:10:35;11.70;99.90
25582;DHT22;13462;50.764;4.332;2023-11-19T07:13:01;11.70;99.90
25582;DHT22;13462;50.764;4.332;2023-11-19T07:15:27;11.70;99.90
25582;DHT22;13462;50.764;4.332;2023-11-19T07:17:52;11.70;99.90
25582;DHT22;13462;50.764;4.332;2023-11-19T07:20:19;11.70;99.90
25582;DHT22;13462;50.764;4.332;2023-11-19T07:22:45;11.70;99.90
25582;DHT22;13462;50.764;4.332;2023-11-19T07:25:13;11.70;99.90
25582;DHT22;13462;50.764;4.332;2023-11-19T07:27:38;11.70;99.90
25582;DHT22;13462;50.764;4.332;2023-11-19T07:30:05;11.60;99.90
25582;DHT22;13462;50.764;4.332;2023-11-19T07:32:33;11.70;99.90
25582;DHT22;13462;50.764;4.332;2023-11-19T07:34:58;11.60;99.90
25582;DHT22;13462;50.764;4.332;2023-11-19T07:37:25;11.70;99.90
25582;DHT22;13462;50.764;4.332;2023-11-19T07:39:50;11.70;99.90
25582;DHT22;13462;50.764;4.332;2023-11-19T07:42:16;11.70;99.90
25582;DHT22;13462;50.764;4.332;2023-11-19T07:44:42;11.70;99.90
25582;DHT22;13462;50.764;4.332;2023-11-19T07:47:08;11.80;99.90
25582;DHT22;13462;50.764;4.332;2023-11-19T07:49:34;11.80;99.90
25582;DHT22;13462;50.764;4.332;2023-11-19T07:51:59;11.80;99.90
25582;DHT22;13462;50.764;4.332;2023-11-19T07:54:25;11.80;99.90
25582;DHT22;13462;50.764;4.332;2023-11-19T07:56:51;11.80;99.90
25582;DHT22;13462;50.764;4.332;2023-11-19T07:59:16;11.80;99.90
25582;DHT22;13462;50.764;4.332;2023-11-19T08:01:42;11.90;99.90
25582;DHT22;13462;50.764;4.332;2023-11-19T08:04:08;12.00;99.90
25582;DHT22;13462;50.764;4.332;2023-11-19T08:06:34;12.10;99.90
25582;DHT22;13462;50.764;4.332;2023-11-19T08:08:59;12.20;99.90
25582;DHT22;13462;50.764;4.332;2023-11-19T08:11:25;12.30;99.90
25582;DHT22;13462;50.764;4.332;2023-11-19T08:13:50;12.40;99.90
25582;DHT22;13462;50.764;4.332;2023-11-19T08:16:16;12.50;99.90
25582;DHT22;13462;50.764;4.332;2023-11-19T08:18:43;12.50;99.90
25582;DHT22;13462;50.764;4.332;2023-11-19T08:21:09;12.50;99.90
25582;DHT22;13462;50.764;4.332;2023-11-19T08:23:35;12.60;99.90
25582;DHT22;13462;50.764;4.332;2023-11-19T08:26:01;12.60;99.90
25582;DHT22;13462;50.764;4.332;2023-11-19T08:28:26;12.80;99.90
25582;DHT22;13462;50.764;4.332;2023-11-19T08:30:53;13.20;99.90
25582;DHT22;13462;50.764;4.332;2023-11-19T08:33:18;13.70;99.90
25582;DHT22;13462;50.764;4.332;2023-11-19T08:35:44;14.20;99.90
25582;DHT22;13462;50.764;4.332;2023-11-19T08:38:10;13.90;99.90
25582;DHT22;13462;50.764;4.332;2023-11-19T08:40:36;13.70;99.90
25582;DHT22;13462;50.764;4.332;2023-11-19T08:43:04;13.40;99.90
25582;DHT22;13462;50.764;4.332;2023-11-19T08:45:30;13.20;99.90
25582;DHT22;13462;50.764;4.332;2023-11-19T08:47:56;13.10;99.90
25582;DHT22;13462;50.764;4.332;2023-11-19T08:50:22;13.00;99.90
25582;DHT22;13462;50.764;4.332;2023-11-19T08:52:48;13.00;99.90
25582;DHT22;13462;50.764;4.332;2023-11-19T08:55:13;13.20;99.90
25582;DHT22;13462;50.764;4.332;2023-11-19T08:57:39;13.60;99.90
25582;DHT22;13462;50.764;4.332;2023-11-19T09:00:05;13.80;99.90
25582;DHT22;13462;50.764;4.332;2023-11-19T09:02:37;13.60;99.90
25582;DHT22;13462;50.764;4.332;2023-11-19T09:05:03;13.30;99.90
25582;DHT22;13462;50.764;4.332;2023-11-19T09:07:29;13.20;99.90
25582;DHT22;13462;50.764;4.332;2023-11-19T09:09:54;13.10;99.90
25582;DHT22;13462;50.764;4.332;2023-11-19T09:12:20;13.20;99.90
25582;DHT22;13462;50.764;4.332;2023-11-19T09:14:46;13.50;99.90
25582;DHT22;13462;50.764;4.332;2023-11-19T09:17:11;13.50;99.90
25582;DHT22;13462;50.764;4.332;2023-11-19T09:19:37;13.40;99.90
25582;DHT22;13462;50.764;4.332;2023-11-19T09:22:03;13.60;99.90
25582;DHT22;13462;50.764;4.332;2023-11-19T09:24:29;14.30;99.90
25582;DHT22;13462;50.764;4.332;2023-11-19T09:26:54;15.10;99.90
25582;DHT22;13462;50.764;4.332;2023-11-19T09:29:21;15.40;99.90
25582;DHT22;13462;50.764;4.332;2023-11-19T09:31:47;16.30;99.90
25582;DHT22;13462;50.764;4.332;2023-11-19T09:34:12;15.90;99.90
25582;DHT22;13462;50.764;4.332;2023-11-19T09:36:38;15.30;99.90
25582;DHT22;13462;50.764;4.332;2023-11-19T09:39:04;14.60;99.90
25582;DHT22;13462;50.764;4.332;2023-11-19T09:41:33;14.10;99.90
25582;DHT22;13462;50.764;4.332;2023-11-19T09:44:00;13.60;99.90
25582;DHT22;13462;50.764;4.332;2023-11-19T09:46:26;13.20;99.90
25582;DHT22;13462;50.764;4.332;2023-11-19T09:48:56;13.20;99.90
25582;DHT22;13462;50.764;4.332;2023-11-19T09:51:23;13.50;99.90
25582;DHT22;13462;50.764;4.332;2023-11-19T09:53:49;14.10;99.90
25582;DHT22;13462;50.764;4.332;2023-11-19T09:56:15;14.90;99.90
25582;DHT22;13462;50.764;4.332;2023-11-19T09:58:42;16.10;99.90
25582;DHT22;13462;50.764;4.332;2023-11-19T10:01:07;17.30;99.90
25582;DHT22;13462;50.764;4.332;2023-11-19T10:03:38;18.00;99.90
25582;DHT22;13462;50.764;4.332;2023-11-19T10:06:07;18.10;99.90
25582;DHT22;13462;50.764;4.332;2023-11-19T10:08:33;18.00;99.90
25582;DHT22;13462;50.764;4.332;2023-11-19T10:10:59;18.60;99.90
25582;DHT22;13462;50.764;4.332;2023-11-19T10:13:28;18.80;99.90
25582;DHT22;13462;50.764;4.332;2023-11-19T10:15:55;18.40;99.90
25582;DHT22;13462;50.764;4.332;2023-11-19T10:18:25;17.50;99.90
25582;DHT22;13462;50.764;4.332;2023-11-19T10:20:51;17.80;99.90
25582;DHT22;13462;50.764;4.332;2023-11-19T10:23:17;17.70;99.90
25582;DHT22;13462;50.764;4.332;2023-11-19T10:25:43;17.60;99.90
25582;DHT22;13462;50.764;4.332;2023-11-19T10:28:08;17.40;99.90
25582;DHT22;13462;50.764;4.332;2023-11-19T10:30:34;17.40;99.90
25582;DHT22;13462;50.764;4.332;2023-11-19T10:33:04;17.80;99.90
25582;DHT22;13462;50.764;4.332;2023-11-19T10:35:50;17.50;99.90
25582;DHT22;13462;50.764;4.332;2023-11-19T10:38:19;17.30;99.90
25582;DHT22;13462;50.764;4.332;2023-11-19T10:40:45;17.70;99.90
25582;DHT22;13462;50.764;4.332;2023-11-19T10:43:10;18.00;99.90
25582;DHT22;13462;50.764;4.332;2023-11-19T10:45:37;18.30;99.90
25582;DHT22;13462;50.764;4.332;2023-11-19T10:48:04;18.50;99.90
25582;DHT22;13462;50.764;4.332;2023-11-19T10:50:32;18.50;99.90
25582;DHT22;13462;50.764;4.332;2023-11-19T10:52:58;18.50;99.90
25582;DHT22;13462;50.764;4.332;2023-11-19T10:55:28;17.70;99.90
25582;DHT22;13462;50.764;4.332;2023-11-19T10:58:02;16.60;99.90
25582;DHT22;13462;50.764;4.332;2023-11-19T11:00:29;16.00;99.90
25582;DHT22;13462;50.764;4.332;2023-11-19T11:03:02;15.60;99.90
25582;DHT22;13462;50.764;4.332;2023-11-19T11:05:32;15.10;99.90
25582;DHT22;13462;50.764;4.332;2023-11-19T11:08:01;14.70;99.90
25582;DHT22;13462;50.764;4.332;2023-11-19T11:10:28;14.30;99.90
25582;DHT22;13462;50.764;4.332;2023-11-19T11:12:59;14.00;99.90
25582;DHT22;13462;50.764;4.332;2023-11-19T11:15:29;13.80;99.90
25582;DHT22;13462;50.764;4.332;2023-11-19T11:18:00;13.70;99.90
25582;DHT22;13462;50.764;4.332;2023-11-19T11:20:33;13.50;99.90
25582;DHT22;13462;50.764;4.332;2023-11-19T11:25:50;13.60;99.90
25582;DHT22;13462;50.764;4.332;2023-11-19T11:31:34;14.20;99.90
25582;DHT22;13462;50.764;4.332;2023-11-19T11:36:45;15.00;99.90
25582;DHT22;13462;50.764;4.332;2023-11-19T11:39:14;15.00;99.90
25582;DHT22;13462;50.764;4.332;2023-11-19T11:41:41;15.20;99.90
25582;DHT22;13462;50.764;4.332;2023-11-19T11:44:07;15.10;99.90
25582;DHT22;13462;50.764;4.332;2023-11-19T11:49:04;15.00;99.90
25582;DHT22;13462;50.764;4.332;2023-11-19T11:57:21;15.30;99.90
25582;DHT22;13462;50.764;4.332;2023-11-19T11:59:49;15.40;99.90
25582;DHT22;13462;50.764;4.332;2023-11-19T12:02:17;15.40;99.90
25582;DHT22;13462;50.764;4.332;2023-11-19T12:04:51;15.60;99.90
25582;DHT22;13462;50.764;4.332;2023-11-19T12:07:21;15.60;99.90
25582;DHT22;13462;50.764;4.332;2023-11-19T12:09:51;15.50;99.90
25582;DHT22;13462;50.764;4.332;2023-11-19T12:12:22;15.10;99.90
25582;DHT22;13462;50.764;4.332;2023-11-19T12:15:09;14.60;99.90
25582;DHT22;13462;50.764;4.332;2023-11-19T12:17:49;14.30;99.90
25582;DHT22;13462;50.764;4.332;2023-11-19T12:20:15;14.10;99.90
25582;DHT22;13462;50.764;4.332;2023-11-19T12:22:43;13.80;99.90
25582;DHT22;13462;50.764;4.332;2023-11-19T12:25:11;13.60;99.90
25582;DHT22;13462;50.764;4.332;2023-11-19T12:27:46;13.60;99.90
25582;DHT22;13462;50.764;4.332;2023-11-19T12:30:12;13.40;99.90
25582;DHT22;13462;50.764;4.332;2023-11-19T12:32:45;13.40;99.90
25582;DHT22;13462;50.764;4.332;2023-11-19T12:35:12;13.30;99.90
25582;DHT22;13462;50.764;4.332;2023-11-19T12:37:44;13.40;99.90
25582;DHT22;13462;50.764;4.332;2023-11-19T12:40:21;13.50;99.90
25582;DHT22;13462;50.764;4.332;2023-11-19T12:42:48;13.60;99.90
25582;DHT22;13462;50.764;4.332;2023-11-19T12:45:14;13.50;99.90
25582;DHT22;13462;50.764;4.332;2023-11-19T12:47:41;13.50;99.90
25582;DHT22;13462;50.764;4.332;2023-11-19T12:50:08;13.40;99.90
25582;DHT22;13462;50.764;4.332;2023-11-19T12:52:35;13.40;99.90
25582;DHT22;13462;50.764;4.332;2023-11-19T12:55:02;13.80;99.90
25582;DHT22;13462;50.764;4.332;2023-11-19T13:00:04;14.20;99.90
25582;DHT22;13462;50.764;4.332;2023-11-19T13:02:50;14.20;99.90
25582;DHT22;13462;50.764;4.332;2023-11-19T13:05:25;14.00;99.90
25582;DHT22;13462;50.764;4.332;2023-11-19T13:08:09;13.80;99.90
25582;DHT22;13462;50.764;4.332;2023-11-19T13:10:53;13.90;99.90
25582;DHT22;13462;50.764;4.332;2023-11-19T13:13:19;13.80;99.90
25582;DHT22;13462;50.764;4.332;2023-11-19T13:15:45;13.60;99.90
25582;DHT22;13462;50.764;4.332;2023-11-19T13:18:12;13.40;99.90
25582;DHT22;13462;50.764;4.332;2023-11-19T13:20:38;13.20;99.90
25582;DHT22;13462;50.764;4.332;2023-11-19T13:23:05;13.10;99.90
25582;DHT22;13462;50.764;4.332;2023-11-19T13:25:32;13.00;99.90
25582;DHT22;13462;50.764;4.332;2023-11-19T13:27:58;13.00;99.90
25582;DHT22;13462;50.764;4.332;2023-11-19T13:30:25;13.00;99.90
25582;DHT22;13462;50.764;4.332;2023-11-19T13:32:51;12.90;99.90
25582;DHT22;13462;50.764;4.332;2023-11-19T13:35:18;13.00;99.90
25582;DHT22;13462;50.764;4.332;2023-11-19T13:37:44;13.10;99.90
25582;DHT22;13462;50.764;4.332;2023-11-19T13:40:11;13.20;99.90
25582;DHT22;13462;50.764;4.332;2023-11-19T13:42:40;13.30;99.90
25582;DHT22;13462;50.764;4.332;2023-11-19T13:45:10;13.30;99.90
25582;DHT22;13462;50.764;4.332;2023-11-19T13:47:45;13.50;99.90
25582;DHT22;13462;50.764;4.332;2023-11-19T13:50:15;13.60;99.90
25582;DHT22;13462;50.764;4.332;2023-11-19T13:52:42;13.50;99.90
25582;DHT22;13462;50.764;4.332;2023-11-19T13:55:10;13.40;99.90
25582;DHT22;13462;50.764;4.332;2023-11-19T13:57:37;13.40;99.90
25582;DHT22;13462;50.764;4.332;2023-11-19T14:00:04;13.30;99.90
25582;DHT22;13462;50.764;4.332;2023-11-19T14:02:46;13.20;99.90
25582;DHT22;13462;50.764;4.332;2023-11-19T14:05:13;13.20;99.90
25582;DHT22;13462;50.764;4.332;2023-11-19T14:07:39;13.20;99.90
25582;DHT22;13462;50.764;4.332;2023-11-19T14:10:06;13.10;99.90
25582;DHT22;13462;50.764;4.332;2023-11-19T14:12:33;13.20;99.90
25582;DHT22;13462;50.764;4.332;2023-11-19T14:14:59;13.30;99.90
25582;DHT22;13462;50.764;4.332;2023-11-19T14:17:25;13.30;99.90
25582;DHT22;13462;50.764;4.332;2023-11-19T14:19:51;13.30;99.90
25582;DHT22;13462;50.764;4.332;2023-11-19T14:22:17;13.20;99.90
25582;DHT22;13462;50.764;4.332;2023-11-19T14:24:43;13.30;99.90
25582;DHT22;13462;50.764;4.332;2023-11-19T14:27:10;13.10;99.90
25582;DHT22;13462;50.764;4.332;2023-11-19T14:29:36;13.10;99.90
25582;DHT22;13462;50.764;4.332;2023-11-19T14:32:03;13.00;99.90
25582;DHT22;13462;50.764;4.332;2023-11-19T14:34:31;13.00;99.90
25582;DHT22;13462;50.764;4.332;2023-11-19T14:36:58;13.00;99.90
25582;DHT22;13462;50.764;4.332;2023-11-19T14:39:24;13.10;99.90
25582;DHT22;13462;50.764;4.332;2023-11-19T14:41:50;13.10;99.90
25582;DHT22;13462;50.764;4.332;2023-11-19T14:44:16;13.10;99.90
25582;DHT22;13462;50.764;4.332;2023-11-19T14:46:41;13.10;99.90
25582;DHT22;13462;50.764;4.332;2023-11-19T14:49:07;12.90;99.90
25582;DHT22;13462;50.764;4.332;2023-11-19T14:51:39;12.90;99.90
25582;DHT22;13462;50.764;4.332;2023-11-19T14:54:05;12.80;99.90
25582;DHT22;13462;50.764;4.332;2023-11-19T14:56:31;12.70;99.90
25582;DHT22;13462;50.764;4.332;2023-11-19T14:58:56;12.70;99.90
25582;DHT22;13462;50.764;4.332;2023-11-19T15:01:22;12.70;99.90
25582;DHT22;13462;50.764;4.332;2023-11-19T15:03:48;12.70;99.90
25582;DHT22;13462;50.764;4.332;2023-11-19T15:06:13;12.70;99.90
25582;DHT22;13462;50.764;4.332;2023-11-19T15:08:39;12.80;99.90
25582;DHT22;13462;50.764;4.332;2023-11-19T15:11:05;12.70;99.90
25582;DHT22;13462;50.764;4.332;2023-11-19T15:13:32;12.70;99.90
25582;DHT22;13462;50.764;4.332;2023-11-19T15:15:58;12.70;99.90
25582;DHT22;13462;50.764;4.332;2023-11-19T15:18:24;12.70;99.90
25582;DHT22;13462;50.764;4.332;2023-11-19T15:20:49;12.80;99.90
25582;DHT22;13462;50.764;4.332;2023-11-19T15:23:15;12.80;99.90
25582;DHT22;13462;50.764;4.332;2023-11-19T15:25:42;12.90;99.90
25582;DHT22;13462;50.764;4.332;2023-11-19T15:28:07;12.90;99.90
25582;DHT22;13462;50.764;4.332;2023-11-19T15:30:33;12.90;99.90
25582;DHT22;13462;50.764;4.332;2023-11-19T15:32:59;12.90;99.90
25582;DHT22;13462;50.764;4.332;2023-11-19T15:35:25;13.00;99.90
25582;DHT22;13462;50.764;4.332;2023-11-19T15:37:51;12.90;99.90
25582;DHT22;13462;50.764;4.332;2023-11-19T15:40:16;13.00;99.90
25582;DHT22;13462;50.764;4.332;2023-11-19T15:42:43;13.00;99.90
25582;DHT22;13462;50.764;4.332;2023-11-19T15:45:10;12.90;99.90
25582;DHT22;13462;50.764;4.332;2023-11-19T15:47:37;12.90;99.90
25582;DHT22;13462;50.764;4.332;2023-11-19T15:50:03;12.90;99.90